createdAt,value
2022-09-12T00:01:12.894Z,15.27
2022-09-12T00:03:40.281Z,15.73
2022-09-12T00:06:22.617Z,17.60
2022-09-12T00:08:50.320Z,15.82
2022-09-12T00:11:16.938Z,18.58
2022-09-12T00:13:43.916Z,19.55
2022-09-12T00:16:21.905Z,15.95
2022-09-12T00:18:49.171Z,17.80
2022-09-12T00:21:17.493Z,17.30
2022-09-12T00:23:44.758Z,19.40
2022-09-12T00:26:11.499Z,18.77
2022-09-12T00:28:39.569Z,18.63
2022-09-12T00:31:09.533Z,15.93
2022-09-12T00:33:36.687Z,15.85
2022-09-12T00:36:16.337Z,19.92
2022-09-12T00:38:44.458Z,17.67
2022-09-12T00:41:17.720Z,18.17
2022-09-12T00:43:47.758Z,17.70
2022-09-12T00:46:19.207Z,17.50
2022-09-12T00:48:52.508Z,18.63
2022-09-12T00:51:19.934Z,16.83
2022-09-12T00:53:50.038Z,18.15
2022-09-12T00:56:18.745Z,18.27
2022-09-12T00:59:04.024Z,22.58
2022-09-12T01:01:32.755Z,16.63
2022-09-12T01:04:00.213Z,15.90
2022-09-12T01:06:35.243Z,19.60
2022-09-12T01:09:04.442Z,19.73
2022-09-12T01:11:39.060Z,17.20
2022-09-12T01:14:07.279Z,20.73
2022-09-12T01:16:37.861Z,22.88
2022-09-12T01:19:33.113Z,20.95
2022-09-12T01:22:18.518Z,21.08
2022-09-12T01:25:10.092Z,21.52
2022-09-12T01:27:53.449Z,23.73
2022-09-12T01:30:45.453Z,23.55
2022-09-12T01:33:17.769Z,25.27
2022-09-12T01:36:02.963Z,21.08
2022-09-12T01:38:46.919Z,23.63
2022-09-12T01:41:16.679Z,26.13
2022-09-12T01:43:48.061Z,26.98
2022-09-12T01:46:19.321Z,23.98
2022-09-12T01:48:59.138Z,22.98
2022-09-12T01:51:29.758Z,26.02
2022-09-12T01:54:10.282Z,24.02
2022-09-12T01:56:40.736Z,23.48
2022-09-12T01:59:37.098Z,22.77
2022-09-12T02:02:06.270Z,23.25
2022-09-12T02:04:52.952Z,23.15
2022-09-12T02:07:41.848Z,23.25
2022-09-12T02:10:08.635Z,24.90
2022-09-12T02:12:58.033Z,24.52
2022-09-12T02:15:30.085Z,23.58
2022-09-12T02:18:01.038Z,25.17
2022-09-12T02:20:54.638Z,27.83
2022-09-12T02:23:25.435Z,27.45
2022-09-12T02:25:57.747Z,26.70
2022-09-12T02:28:31.914Z,27.00
2022-09-12T02:31:10.435Z,28.55
2022-09-12T02:33:53.243Z,24.38
2022-09-12T02:36:40.010Z,25.88
2022-09-12T02:39:06.819Z,24.70
2022-09-12T02:41:33.641Z,25.02
2022-09-12T02:44:00.501Z,26.48
2022-09-12T02:46:40.777Z,20.77
2022-09-12T02:49:09.425Z,23.88
2022-09-12T02:51:37.049Z,21.95
2022-09-12T02:54:06.425Z,24.05
2022-09-12T02:56:33.440Z,22.70
2022-09-12T02:59:06.760Z,21.52
2022-09-12T03:01:33.406Z,23.75
2022-09-12T03:04:21.782Z,23.35
2022-09-12T03:07:13.008Z,20.77
2022-09-12T03:10:14.980Z,21.88
2022-09-12T03:13:03.297Z,23.27
2022-09-12T03:15:41.927Z,21.23
2022-09-12T03:18:38.399Z,22.17
2022-09-12T03:21:19.326Z,22.42
2022-09-12T03:24:13.699Z,23.73
2022-09-12T03:26:43.239Z,23.65
2022-09-12T03:29:11.583Z,20.63
2022-09-12T03:31:47.615Z,23.05
2022-09-12T03:34:14.330Z,24.23
2022-09-12T03:36:41.697Z,22.45
2022-09-12T03:39:08.306Z,22.33
2022-09-12T03:41:34.929Z,23.92
2022-09-12T03:44:01.795Z,21.95
2022-09-12T03:46:28.433Z,23.83
2022-09-12T03:48:55.068Z,23.38
2022-09-12T03:51:22.118Z,23.85
2022-09-12T03:53:48.781Z,26.77
2022-09-12T03:56:15.436Z,25.05
2022-09-12T03:58:42.538Z,25.38
2022-09-12T04:01:12.748Z,24.55
2022-09-12T04:03:43.841Z,25.63
2022-09-12T04:06:12.049Z,29.42
2022-09-12T04:08:38.961Z,29.27
2022-09-12T04:11:10.580Z,27.60
2022-09-12T04:13:38.555Z,27.05
2022-09-12T04:16:05.970Z,27.95
2022-09-12T04:18:33.060Z,29.90
2022-09-12T04:21:07.596Z,27.30
2022-09-12T04:23:34.813Z,29.55
2022-09-12T04:26:03.141Z,31.27
2022-09-12T04:28:30.447Z,32.42
2022-09-12T04:31:02.846Z,31.33
2022-09-12T04:33:29.581Z,32.90
2022-09-12T04:35:56.284Z,29.90
2022-09-12T04:38:22.907Z,29.73
2022-09-12T04:40:49.533Z,32.40
2022-09-12T04:43:16.582Z,29.08
2022-09-12T04:45:43.247Z,30.27
2022-09-12T04:48:09.925Z,33.05
2022-09-12T04:50:36.610Z,36.33
2022-09-12T04:53:03.336Z,32.20
2022-09-12T04:55:30.083Z,34.72
2022-09-12T04:57:56.712Z,32.97
2022-09-12T05:00:23.388Z,31.85
2022-09-12T05:02:50.141Z,34.35
2022-09-12T05:05:17.346Z,33.90
2022-09-12T05:07:44.048Z,34.55
2022-09-12T05:10:10.777Z,32.83
2022-09-12T05:12:37.430Z,35.00
2022-09-12T05:15:04.712Z,31.98
2022-09-12T05:17:31.341Z,31.60
2022-09-12T05:19:57.978Z,34.58
2022-09-12T05:22:25.134Z,30.77
2022-09-12T05:24:51.779Z,33.92
2022-09-12T05:27:18.455Z,38.55
2022-09-12T05:29:45.193Z,35.13
2022-09-12T05:32:12.515Z,35.38
2022-09-12T05:34:40.141Z,38.35
2022-09-12T05:37:06.965Z,37.90
2022-09-12T05:39:33.738Z,35.42
2022-09-12T05:42:00.392Z,33.65
2022-09-12T05:44:27.109Z,36.72
2022-09-12T05:46:53.786Z,35.55
2022-09-12T05:49:21.492Z,35.75
2022-09-12T05:51:48.133Z,31.63
2022-09-12T05:54:18.740Z,34.08
2022-09-12T05:56:45.692Z,35.28
2022-09-12T05:59:15.244Z,39.42
2022-09-12T06:01:42.405Z,38.70
2022-09-12T06:04:09.560Z,39.75
2022-09-12T06:06:47.007Z,37.35
2022-09-12T06:09:16.117Z,41.80
2022-09-12T06:11:42.987Z,38.85
2022-09-12T06:14:12.766Z,39.92
2022-09-12T06:16:39.872Z,38.00
2022-09-12T06:19:12.545Z,41.92
2022-09-12T06:21:39.817Z,38.42
2022-09-12T06:24:07.517Z,44.50
2022-09-12T06:26:34.851Z,40.22
2022-09-12T06:29:02.290Z,43.15
2022-09-12T06:31:31.569Z,39.88
2022-09-12T06:34:01.196Z,42.28
2022-09-12T06:36:30.967Z,42.80
2022-09-12T06:39:03.639Z,47.63
2022-09-12T06:41:31.622Z,42.20
2022-09-12T06:43:59.093Z,42.15
2022-09-12T06:46:26.605Z,42.88
2022-09-12T06:48:55.457Z,45.60
2022-09-12T06:51:22.211Z,43.55
2022-09-12T06:53:49.550Z,48.55
2022-09-12T06:56:21.644Z,44.58
2022-09-12T06:58:50.432Z,41.35
2022-09-12T07:01:21.683Z,45.30
2022-09-12T07:03:53.893Z,43.70
2022-09-12T07:06:24.157Z,45.63
2022-09-12T07:08:50.955Z,48.25
2022-09-12T07:11:24.035Z,48.30
2022-09-12T07:13:52.717Z,54.50
2022-09-12T07:16:20.311Z,48.78
2022-09-12T07:18:58.195Z,47.75
2022-09-12T07:21:25.205Z,49.40
2022-09-12T07:23:52.049Z,45.97
2022-09-12T07:26:18.983Z,45.00
2022-09-12T07:28:45.696Z,44.63
2022-09-12T07:31:18.313Z,45.47
2022-09-12T07:33:45.265Z,46.03
2022-09-12T07:36:14.561Z,45.67
2022-09-12T07:38:42.382Z,41.50
2022-09-12T07:41:19.149Z,49.50
2022-09-12T07:43:46.044Z,47.72
2022-09-12T07:46:14.228Z,42.00
2022-09-12T07:48:41.237Z,44.75
2022-09-12T07:51:10.789Z,42.65
2022-09-12T07:53:39.954Z,43.60
2022-09-12T07:56:08.463Z,42.10
2022-09-12T07:58:36.577Z,43.80
2022-09-12T08:01:15.811Z,42.15
2022-09-12T08:03:45.002Z,44.78
2022-09-12T08:06:17.367Z,40.20
2022-09-12T08:08:44.016Z,46.00
2022-09-12T08:11:13.607Z,40.10
2022-09-12T08:13:41.850Z,40.33
2022-09-12T08:16:17.953Z,43.08
2022-09-12T08:18:44.946Z,41.92
2022-09-12T08:21:20.019Z,37.63
2022-09-12T08:23:47.244Z,36.60
2022-09-12T08:26:14.067Z,40.15
2022-09-12T08:28:45.620Z,40.22
2022-09-12T08:31:15.232Z,41.05
2022-09-12T08:33:42.171Z,39.28
2022-09-12T08:36:22.557Z,35.53
2022-09-12T08:41:47.731Z,34.75
2022-09-12T08:44:25.946Z,39.50
2022-09-12T08:47:10.302Z,32.75
2022-09-12T08:49:54.470Z,34.92
2022-09-12T08:52:30.871Z,34.70
2022-09-12T08:54:57.712Z,33.30
2022-09-12T08:57:24.803Z,34.10
2022-09-12T08:59:52.925Z,33.75
2022-09-12T09:02:41.430Z,35.40
2022-09-12T09:05:15.040Z,34.50
2022-09-12T09:08:10.650Z,29.40
2022-09-12T09:10:52.894Z,34.22
2022-09-12T09:13:53.442Z,31.42
2022-09-12T09:16:30.622Z,31.63
2022-09-12T09:19:05.506Z,32.53
2022-09-12T09:21:34.851Z,31.17
2022-09-12T09:24:06.472Z,37.03
2022-09-12T09:27:00.700Z,29.48
2022-09-12T09:29:34.634Z,28.45
2022-09-12T09:32:09.480Z,28.27
2022-09-12T09:34:36.184Z,27.88
2022-09-12T09:37:36.162Z,26.90
2022-09-12T09:40:15.622Z,27.15
2022-09-12T09:43:00.540Z,27.83
2022-09-12T09:45:30.116Z,30.60
2022-09-12T09:48:09.946Z,28.10
2022-09-12T09:50:37.820Z,26.75
2022-09-12T09:53:07.334Z,28.75
2022-09-12T09:55:42.984Z,27.45
2022-09-12T09:58:09.684Z,28.50
2022-09-12T10:00:38.151Z,26.05
2022-09-12T10:03:37.093Z,26.42
2022-09-12T10:06:23.639Z,23.27
2022-09-12T10:08:50.857Z,23.52
2022-09-12T10:11:23.244Z,24.13
2022-09-12T10:13:59.931Z,23.02
2022-09-12T10:16:28.156Z,22.20
2022-09-12T10:19:00.607Z,18.38
2022-09-12T10:21:30.392Z,26.92
2022-09-12T10:24:13.479Z,17.55
2022-09-12T10:26:41.794Z,16.10
2022-09-12T10:29:18.890Z,16.80
2022-09-12T10:31:51.253Z,15.82
2022-09-12T10:34:25.972Z,14.80
2022-09-12T10:36:58.839Z,14.82
2022-09-12T10:39:26.132Z,14.88
2022-09-12T10:41:52.792Z,13.68
2022-09-12T10:44:27.315Z,13.23
2022-09-12T10:46:54.603Z,12.18
2022-09-12T10:49:37.904Z,14.23
2022-09-12T10:52:25.047Z,15.30
2022-09-12T10:54:51.916Z,14.40
2022-09-12T10:57:43.925Z,11.98
2022-09-12T11:00:20.459Z,14.65
2022-09-12T11:03:15.245Z,11.82
2022-09-12T11:05:57.794Z,9.75
2022-09-12T11:08:34.080Z,9.45
2022-09-12T11:11:04.070Z,8.98
2022-09-12T11:13:45.746Z,10.60
2022-09-12T11:16:27.290Z,10.02
2022-09-12T11:19:04.035Z,12.20
2022-09-12T11:21:38.426Z,10.82
2022-09-12T11:24:23.161Z,11.52
2022-09-12T11:27:08.277Z,10.80
2022-09-12T11:29:47.273Z,12.27
2022-09-12T11:32:32.180Z,10.25
2022-09-12T11:35:31.548Z,12.23
2022-09-12T11:38:05.075Z,9.90
2022-09-12T11:40:40.668Z,12.00
2022-09-12T11:43:26.227Z,13.13
2022-09-12T11:45:53.657Z,11.27
2022-09-12T11:48:40.021Z,9.25
2022-09-12T11:51:18.222Z,9.88
2022-09-12T11:53:50.549Z,9.90
2022-09-12T11:56:18.635Z,9.13
2022-09-12T11:58:54.580Z,11.57
2022-09-12T12:01:28.610Z,8.85
2022-09-12T12:03:57.023Z,8.52
2022-09-12T12:06:39.986Z,10.48
2022-09-12T12:09:06.676Z,12.00
2022-09-12T12:11:41.872Z,9.32
2022-09-12T12:14:35.753Z,8.65
2022-09-12T12:17:02.587Z,7.65
2022-09-12T12:19:37.627Z,8.93
2022-09-12T12:22:24.732Z,11.20
2022-09-12T12:25:07.464Z,8.35
2022-09-12T12:27:51.332Z,8.23
2022-09-12T12:30:30.402Z,9.13
2022-09-12T12:33:27.253Z,9.13
2022-09-12T12:35:59.835Z,7.50
2022-09-12T12:38:30.805Z,8.43
2022-09-12T12:41:19.321Z,6.65
2022-09-12T12:43:54.710Z,6.20
2022-09-12T12:46:31.151Z,8.38
2022-09-12T12:49:17.345Z,10.35
2022-09-12T12:51:58.880Z,6.55
2022-09-12T12:54:42.194Z,7.90
2022-09-12T12:57:39.379Z,7.25
2022-09-12T13:00:25.981Z,6.30
2022-09-12T13:03:06.551Z,6.72
2022-09-12T13:05:46.033Z,8.75
2022-09-12T13:08:18.785Z,6.47
2022-09-12T13:11:07.428Z,9.10
2022-09-12T13:13:49.743Z,6.80
2022-09-12T13:16:37.843Z,6.15
2022-09-12T13:19:20.273Z,7.72
2022-09-12T13:22:16.097Z,6.70
2022-09-12T13:24:44.786Z,7.15
2022-09-12T13:27:18.977Z,5.63
2022-09-12T13:29:45.857Z,7.30
2022-09-12T13:32:12.788Z,7.53
2022-09-12T13:35:00.131Z,6.85
2022-09-12T13:37:26.705Z,7.97
2022-09-12T13:40:08.308Z,6.25
2022-09-12T13:42:53.229Z,10.07
2022-09-12T13:45:21.789Z,6.20
2022-09-12T13:47:57.883Z,5.35
2022-09-12T13:50:39.476Z,5.30
2022-09-12T13:53:12.108Z,7.15
2022-09-12T13:55:46.163Z,7.53
2022-09-12T13:58:22.914Z,6.43
2022-09-12T14:01:22.522Z,6.10
2022-09-12T14:04:13.247Z,10.45
2022-09-12T14:06:49.662Z,6.68
2022-09-12T14:09:25.233Z,6.60
2022-09-12T14:11:52.761Z,6.32
2022-09-12T14:14:34.190Z,6.63
2022-09-12T14:17:01.078Z,7.00
2022-09-12T14:19:29.122Z,6.57
2022-09-12T14:21:57.215Z,6.30
2022-09-12T14:24:24.420Z,5.05
2022-09-12T14:26:54.158Z,5.70
2022-09-12T14:32:01.641Z,5.57
2022-09-12T14:34:28.435Z,6.32
2022-09-12T14:36:57.176Z,5.30
2022-09-12T14:39:31.666Z,5.18
2022-09-12T14:42:14.319Z,5.68
2022-09-12T14:44:50.149Z,4.25
2022-09-12T14:47:24.887Z,8.63
2022-09-12T14:49:52.247Z,6.28
2022-09-12T14:52:26.161Z,5.68
2022-09-12T14:55:18.656Z,4.60
2022-09-12T14:57:47.865Z,5.38
2022-09-12T15:00:20.914Z,5.28
2022-09-12T15:02:49.182Z,5.60
2022-09-12T15:05:20.739Z,4.57
2022-09-12T15:07:56.798Z,3.70
2022-09-12T15:10:33.977Z,4.75
2022-09-12T15:13:11.838Z,6.15
2022-09-12T15:15:40.188Z,4.35
2022-09-12T15:18:07.190Z,6.15
2022-09-12T15:20:38.936Z,5.97
2022-09-12T15:23:12.126Z,8.38
2022-09-12T15:25:38.817Z,5.25
2022-09-12T15:28:20.938Z,6.65
2022-09-12T15:30:50.501Z,4.75
2022-09-12T15:33:19.572Z,5.38
2022-09-12T15:35:46.444Z,6.10
2022-09-12T15:38:13.174Z,3.95
2022-09-12T15:40:40.174Z,4.63
2022-09-12T15:43:07.068Z,5.35
2022-09-12T15:45:35.361Z,5.45
2022-09-12T15:48:03.326Z,4.78
2022-09-12T15:50:30.504Z,5.20
2022-09-12T15:52:57.601Z,4.25
2022-09-12T15:55:30.197Z,4.85
2022-09-12T15:57:56.794Z,6.20
2022-09-12T16:00:23.795Z,3.85
2022-09-12T16:02:52.955Z,4.70
2022-09-12T16:05:23.250Z,3.92
2022-09-12T16:07:53.324Z,7.03
2022-09-12T16:10:23.978Z,4.70
2022-09-12T16:12:51.366Z,4.75
2022-09-12T16:15:20.826Z,4.32
2022-09-12T16:17:47.944Z,4.63
2022-09-12T16:20:14.888Z,8.23
2022-09-12T16:22:42.409Z,5.05
2022-09-12T16:25:09.548Z,3.70
2022-09-12T16:27:37.481Z,5.57
2022-09-12T16:30:06.163Z,5.38
2022-09-12T16:32:33.417Z,5.07
2022-09-12T16:35:00.401Z,6.65
2022-09-12T16:37:27.360Z,7.60
2022-09-12T16:39:54.082Z,6.10
2022-09-12T16:42:20.811Z,7.65
2022-09-12T16:44:47.670Z,7.40
2022-09-12T16:47:15.098Z,6.47
2022-09-12T16:49:41.746Z,6.78
2022-09-12T16:52:08.657Z,5.85
2022-09-12T16:54:35.398Z,6.18
2022-09-12T16:57:05.062Z,7.30
2022-09-12T16:59:32.100Z,4.03
2022-09-12T17:01:58.858Z,5.28
2022-09-12T17:04:25.637Z,5.60
2022-09-12T17:06:52.331Z,7.70
2022-09-12T17:09:19.116Z,4.22
2022-09-12T17:11:50.276Z,5.03
2022-09-12T17:14:17.169Z,3.72
2022-09-12T17:16:50.737Z,5.10
2022-09-12T17:19:22.076Z,4.47
2022-09-12T17:21:49.967Z,4.15
2022-09-12T17:24:17.729Z,7.60
2022-09-12T17:26:45.049Z,5.05
2022-09-12T17:29:15.787Z,6.18
2022-09-12T17:31:44.054Z,4.47
2022-09-12T17:34:14.313Z,4.65
2022-09-12T17:36:44.187Z,5.47
2022-09-12T17:39:11.902Z,4.30
2022-09-12T17:41:38.838Z,7.00
2022-09-12T17:44:07.555Z,5.40
2022-09-12T17:46:38.386Z,5.40
2022-09-12T17:49:08.090Z,10.25
2022-09-12T17:51:35.221Z,4.38
2022-09-12T17:54:04.616Z,4.65
2022-09-12T17:56:33.006Z,6.05
2022-09-12T17:59:00.317Z,4.15
2022-09-12T18:01:46.354Z,4.53
2022-09-12T18:04:13.637Z,5.32
2022-09-12T18:06:40.920Z,5.38
2022-09-12T18:09:09.535Z,4.95
2022-09-12T18:11:36.499Z,5.35
2022-09-12T18:14:03.121Z,4.63
2022-09-12T18:16:31.364Z,5.28
2022-09-12T18:19:01.480Z,5.57
2022-09-12T18:23:58.872Z,5.85
2022-09-12T18:26:27.146Z,4.55
2022-09-12T18:28:54.229Z,6.25
2022-09-12T18:31:24.432Z,6.95
2022-09-12T18:33:51.601Z,5.60
2022-09-12T18:36:19.367Z,6.05
2022-09-12T18:38:46.128Z,6.55
2022-09-12T18:41:14.876Z,5.72
2022-09-12T18:43:42.147Z,5.00
2022-09-12T18:46:15.969Z,4.65
2022-09-12T18:48:43.189Z,5.93
2022-09-12T18:51:15.024Z,6.88
2022-09-12T18:53:42.742Z,6.75
2022-09-12T18:56:12.054Z,6.43
2022-09-12T18:58:40.674Z,5.87
2022-09-12T19:01:15.998Z,5.97
2022-09-12T19:03:43.508Z,6.68
2022-09-12T19:06:21.708Z,5.60
2022-09-12T19:08:50.165Z,6.45
2022-09-12T19:11:17.847Z,8.80
2022-09-12T19:13:46.119Z,5.05
2022-09-12T19:16:16.712Z,5.10
2022-09-12T19:18:43.672Z,5.72
2022-09-12T19:21:22.429Z,8.85
2022-09-12T19:23:50.046Z,6.50
2022-09-12T19:26:18.138Z,6.78
2022-09-12T19:28:45.300Z,7.65
2022-09-12T19:31:15.125Z,6.35
2022-09-12T19:33:42.831Z,8.48
2022-09-12T19:36:33.697Z,11.40
2022-09-12T19:39:00.112Z,6.43
2022-09-12T19:41:26.848Z,7.90
2022-09-12T19:43:55.685Z,10.50
2022-09-12T19:46:24.165Z,8.27
2022-09-12T19:48:52.371Z,9.45
2022-09-12T19:51:20.835Z,8.55
2022-09-12T19:53:47.796Z,8.38
2022-09-12T19:56:14.936Z,10.45
2022-09-12T19:58:46.635Z,7.68
2022-09-12T20:01:17.520Z,7.65
2022-09-12T20:03:44.840Z,6.50
2022-09-12T20:06:13.906Z,6.68
2022-09-12T20:08:44.620Z,7.97
2022-09-12T20:11:14.013Z,7.53
2022-09-12T20:13:41.374Z,8.17
2022-09-12T20:16:29.213Z,5.78
2022-09-12T20:19:01.735Z,9.35
2022-09-12T20:21:34.164Z,8.63
2022-09-12T20:24:07.253Z,7.72
2022-09-12T20:26:34.132Z,6.15
2022-09-12T20:29:01.341Z,7.78
2022-09-12T20:31:28.565Z,7.53
2022-09-12T20:33:55.553Z,7.03
2022-09-12T20:36:22.933Z,7.78
2022-09-12T20:38:59.878Z,8.25
2022-09-12T20:41:28.526Z,7.40
2022-09-12T20:43:56.881Z,7.65
2022-09-12T20:46:24.928Z,10.10
2022-09-12T20:48:52.259Z,9.82
2022-09-12T20:51:24.548Z,11.70
2022-09-12T20:53:58.093Z,12.75
2022-09-12T20:56:26.580Z,9.75
2022-09-12T20:58:54.201Z,8.45
2022-09-12T21:01:21.713Z,9.10
2022-09-12T21:03:48.758Z,13.65
2022-09-12T21:06:19.289Z,8.07
2022-09-12T21:08:47.489Z,9.68
2022-09-12T21:11:16.895Z,9.88
2022-09-12T21:13:43.913Z,12.33
2022-09-12T21:16:16.816Z,9.63
2022-09-12T21:18:43.973Z,10.65
2022-09-12T21:21:15.044Z,9.15
2022-09-12T21:23:42.301Z,10.32
2022-09-12T21:26:09.026Z,11.73
2022-09-12T21:28:35.746Z,10.27
2022-09-12T21:31:02.525Z,8.93
2022-09-12T21:33:29.283Z,9.23
2022-09-12T21:36:00.594Z,10.23
2022-09-12T21:38:27.218Z,10.60
2022-09-12T21:41:06.455Z,8.93
2022-09-12T21:43:33.305Z,11.52
2022-09-12T21:46:00.999Z,10.88
2022-09-12T21:48:28.285Z,10.68
2022-09-12T21:50:55.041Z,12.52
2022-09-12T21:53:21.733Z,13.45
2022-09-12T21:55:48.600Z,14.18
2022-09-12T21:58:15.276Z,9.88
2022-09-12T22:00:42.368Z,8.43
2022-09-12T22:03:10.362Z,9.77
2022-09-12T22:05:40.054Z,9.77
2022-09-12T22:08:07.898Z,9.68
2022-09-12T22:10:34.793Z,8.45
2022-09-12T22:13:01.669Z,6.97
2022-09-12T22:15:43.842Z,7.80
2022-09-12T22:18:11.412Z,7.53
2022-09-12T22:20:38.037Z,7.88
2022-09-12T22:23:24.950Z,7.80
2022-09-12T22:25:55.086Z,8.23
2022-09-12T22:28:22.505Z,7.45
2022-09-12T22:30:49.248Z,6.22
2022-09-12T22:33:15.941Z,5.85
2022-09-12T22:35:42.580Z,10.15
2022-09-12T22:38:09.353Z,8.80
2022-09-12T22:40:35.997Z,6.80
2022-09-12T22:43:02.751Z,5.35
2022-09-12T22:45:29.378Z,7.85
2022-09-12T22:48:00.411Z,6.47
2022-09-12T22:50:27.584Z,7.03
2022-09-12T22:52:54.219Z,8.05
2022-09-12T22:55:20.856Z,8.07
2022-09-12T22:57:47.650Z,6.00
2022-09-12T23:00:14.993Z,6.63
2022-09-12T23:02:41.656Z,5.50
2022-09-12T23:05:08.613Z,6.65
2022-09-12T23:07:35.614Z,9.70
2022-09-12T23:10:02.246Z,6.70
2022-09-12T23:12:28.970Z,6.20
2022-09-12T23:14:55.574Z,8.50
2022-09-12T23:17:22.217Z,7.07
2022-09-12T23:19:48.900Z,6.70
2022-09-12T23:22:15.495Z,8.05
2022-09-12T23:24:42.130Z,7.97
2022-09-12T23:27:08.926Z,7.32
2022-09-12T23:29:35.629Z,5.75
2022-09-12T23:32:05.756Z,5.75
2022-09-12T23:34:33.531Z,8.02
2022-09-12T23:37:00.161Z,7.15
2022-09-12T23:39:26.899Z,5.90
2022-09-12T23:41:53.593Z,6.25
2022-09-12T23:44:20.219Z,9.10
2022-09-12T23:46:46.815Z,6.80
2022-09-12T23:49:13.541Z,7.65
2022-09-12T23:51:40.140Z,9.45
2022-09-12T23:54:06.924Z,6.25
2022-09-12T23:56:33.676Z,7.32
2022-09-12T23:59:00.361Z,7.60
